createdAt,value
2018-09-10T00:00:37.291Z,23.55
2018-09-10T00:01:37.287Z,23.52
2018-09-10T00:02:37.263Z,23.52
2018-09-10T00:03:37.249Z,23.55
2018-09-10T00:04:37.239Z,23.59
2018-09-10T00:05:37.245Z,23.56
2018-09-10T00:06:37.228Z,23.56
2018-09-10T00:07:37.206Z,23.56
2018-09-10T00:08:37.202Z,23.55
2018-09-10T00:09:37.183Z,23.53
2018-09-10T00:10:37.191Z,23.48
2018-09-10T00:11:37.180Z,23.48
2018-09-10T00:12:37.154Z,23.53
2018-09-10T00:13:37.141Z,23.47
2018-09-10T00:14:37.149Z,23.45
2018-09-10T00:15:37.116Z,23.47
2018-09-10T00:16:37.119Z,23.47
2018-09-10T00:17:37.108Z,23.48
2018-09-10T00:18:37.097Z,23.48
2018-09-10T00:19:37.073Z,23.48
2018-09-10T00:20:37.062Z,23.50
2018-09-10T00:21:37.063Z,23.55
2018-09-10T00:22:37.042Z,23.47
2018-09-10T00:23:37.048Z,23.47
2018-09-10T00:24:37.017Z,23.41
2018-09-10T00:25:37.009Z,23.45
2018-09-10T00:26:37.007Z,23.41
2018-09-10T00:27:36.984Z,23.45
2018-09-10T00:28:36.972Z,23.52
2018-09-10T00:29:36.964Z,23.45
2018-09-10T00:30:36.957Z,23.45
2018-09-10T00:31:36.965Z,23.45
2018-09-10T00:32:36.928Z,23.44
2018-09-10T00:33:36.919Z,23.50
2018-09-10T00:34:36.906Z,23.41
2018-09-10T00:35:36.905Z,23.40
2018-09-10T00:36:36.896Z,23.40
2018-09-10T00:37:36.872Z,23.38
2018-09-10T00:38:36.885Z,23.35
2018-09-10T00:39:36.851Z,23.40
2018-09-10T00:40:36.840Z,23.52
2018-09-10T00:41:36.875Z,23.42
2018-09-10T00:42:36.825Z,23.42
2018-09-10T00:43:36.808Z,23.35
2018-09-10T00:44:36.796Z,23.41
2018-09-10T00:45:36.784Z,23.42
2018-09-10T00:46:36.799Z,23.38
2018-09-10T00:47:36.781Z,23.47
2018-09-10T00:48:36.752Z,23.41
2018-09-10T00:49:36.740Z,23.44
2018-09-10T00:50:36.729Z,23.41
2018-09-10T00:51:36.718Z,23.42
2018-09-10T00:52:36.722Z,23.35
2018-09-10T00:53:36.708Z,23.40
2018-09-10T00:54:36.688Z,23.40
2018-09-10T00:55:36.675Z,23.26
2018-09-10T00:56:36.666Z,23.41
2018-09-10T00:57:36.664Z,23.40
2018-09-10T00:58:36.640Z,23.40
2018-09-10T00:59:36.647Z,23.40
2018-09-10T01:00:36.619Z,23.37
2018-09-10T01:01:36.610Z,23.41
2018-09-10T01:02:36.609Z,23.38
2018-09-10T01:03:36.589Z,23.40
2018-09-10T01:04:36.596Z,23.40
2018-09-10T01:05:36.574Z,23.40
2018-09-10T01:06:36.553Z,23.32
2018-09-10T01:07:36.556Z,23.42
2018-09-10T01:08:36.531Z,23.41
2018-09-10T01:09:36.522Z,23.40
2018-09-10T01:10:36.509Z,23.35
2018-09-10T01:11:36.517Z,23.37
2018-09-10T01:12:36.510Z,23.32
2018-09-10T01:13:36.476Z,23.41
2018-09-10T01:14:36.466Z,23.38
2018-09-10T01:15:36.457Z,23.35
2018-09-10T01:16:36.447Z,23.32
2018-09-10T01:17:36.451Z,23.34
2018-09-10T01:18:36.438Z,23.25
2018-09-10T01:19:36.410Z,23.24
2018-09-10T01:20:36.399Z,23.24
2018-09-10T01:21:36.393Z,23.28
2018-09-10T01:22:36.390Z,23.32
2018-09-10T01:23:36.366Z,23.24
2018-09-10T01:24:36.363Z,23.28
2018-09-10T01:25:36.347Z,23.32
2018-09-10T01:26:36.334Z,23.24
2018-09-10T01:27:36.349Z,23.28
2018-09-10T01:28:36.312Z,23.25
2018-09-10T01:29:36.300Z,23.29
2018-09-10T01:30:36.290Z,23.28
2018-09-10T01:31:36.286Z,23.25
2018-09-10T01:32:36.298Z,23.26
2018-09-10T01:33:36.256Z,23.24
2018-09-10T01:34:36.251Z,23.25
2018-09-10T01:35:36.234Z,23.28
2018-09-10T01:36:36.223Z,23.29
2018-09-10T01:37:36.244Z,23.34
2018-09-10T01:38:36.218Z,23.22
2018-09-10T01:39:36.192Z,23.25
2018-09-10T01:40:36.190Z,23.25
2018-09-10T01:41:36.170Z,23.28
2018-09-10T01:42:36.178Z,23.19
2018-09-10T01:43:36.152Z,23.21
2018-09-10T01:44:36.151Z,23.14
2018-09-10T01:45:36.125Z,23.19
2018-09-10T01:46:36.113Z,23.24
2018-09-10T01:47:36.115Z,23.16
2018-09-10T01:48:36.091Z,23.12
2018-09-10T01:49:36.080Z,23.26
2018-09-10T01:50:36.105Z,23.18
2018-09-10T01:51:36.059Z,23.18
2018-09-10T01:52:36.060Z,23.19
2018-09-10T01:53:36.036Z,23.26
2018-09-10T01:54:36.025Z,23.25
2018-09-10T01:55:36.017Z,23.12
2018-09-10T01:56:36.035Z,23.14
2018-09-10T01:57:36.008Z,23.18
2018-09-10T01:58:35.994Z,23.16
2018-09-10T01:59:35.984Z,23.12
2018-09-10T02:00:35.959Z,23.21
2018-09-10T02:01:35.947Z,23.16
2018-09-10T02:02:35.947Z,23.18
2018-09-10T02:03:35.949Z,23.14
2018-09-10T02:04:35.915Z,23.10
2018-09-10T02:05:35.904Z,23.15
2018-09-10T02:06:35.893Z,23.16
2018-09-10T02:07:35.886Z,23.16
2018-09-10T02:08:35.895Z,23.19
2018-09-10T02:09:35.860Z,23.19
2018-09-10T02:10:35.848Z,23.18
2018-09-10T02:11:35.837Z,23.19
2018-09-10T02:12:35.829Z,23.18
2018-09-10T02:13:35.847Z,23.15
2018-09-10T02:14:35.816Z,23.19
2018-09-10T02:15:35.795Z,23.19
2018-09-10T02:16:35.783Z,23.19
2018-09-10T02:17:35.774Z,23.19
2018-09-10T02:18:35.772Z,23.18
2018-09-10T02:19:35.750Z,23.15
2018-09-10T02:20:35.751Z,23.19
2018-09-10T02:21:35.729Z,23.18
2018-09-10T02:22:35.720Z,23.15
2018-09-10T02:23:35.758Z,23.21
2018-09-10T02:24:35.712Z,23.15
2018-09-10T02:25:35.687Z,23.15
2018-09-10T02:26:35.692Z,23.15
2018-09-10T02:27:35.708Z,23.09
2018-09-10T02:28:35.664Z,23.18
2018-09-10T02:29:35.642Z,23.18
2018-09-10T02:30:35.635Z,23.15
2018-09-10T02:31:35.621Z,23.21
2018-09-10T02:32:35.628Z,23.12
2018-09-10T02:33:35.610Z,23.09
2018-09-10T02:34:35.586Z,23.09
2018-09-10T02:35:35.577Z,23.19
2018-09-10T02:36:35.575Z,23.06
2018-09-10T02:37:35.553Z,23.14
2018-09-10T02:38:35.617Z,23.10
2018-09-10T02:39:35.533Z,23.09
2018-09-10T02:40:35.524Z,23.12
2018-09-10T02:41:35.509Z,23.09
2018-09-10T02:42:35.501Z,23.12
2018-09-10T02:43:35.498Z,23.18
2018-09-10T02:44:35.479Z,23.10
2018-09-10T02:45:35.470Z,23.14
2018-09-10T02:46:35.455Z,23.12
2018-09-10T02:47:35.443Z,23.10
2018-09-10T02:48:35.445Z,23.04
2018-09-10T02:49:35.423Z,23.09
2018-09-10T02:50:35.418Z,23.09
2018-09-10T02:51:35.399Z,23.14
2018-09-10T02:52:35.387Z,23.12
2018-09-10T02:53:35.389Z,23.07
2018-09-10T02:54:35.380Z,23.16
2018-09-10T02:55:35.355Z,23.12
2018-09-10T02:56:35.366Z,23.12
2018-09-10T02:57:35.335Z,23.21
2018-09-10T02:58:35.334Z,23.10
2018-09-10T02:59:35.325Z,23.12
2018-09-10T03:00:35.300Z,23.14
2018-09-10T03:01:35.289Z,23.09
2018-09-10T03:02:35.284Z,23.09
2018-09-10T03:03:35.282Z,23.09
2018-09-10T03:04:35.332Z,23.16
2018-09-10T03:05:35.251Z,23.10
2018-09-10T03:06:35.236Z,23.09
2018-09-10T03:07:35.233Z,23.09
2018-09-10T03:08:35.234Z,23.12
2018-09-10T03:09:35.228Z,23.15
2018-09-10T03:10:35.199Z,23.09
2018-09-10T03:11:35.181Z,23.14
2018-09-10T03:12:35.168Z,23.12
2018-09-10T03:13:35.192Z,23.06
2018-09-10T03:14:35.153Z,23.12
2018-09-10T03:15:35.137Z,23.03
2018-09-10T03:16:35.130Z,23.06
2018-09-10T03:17:35.113Z,23.09
2018-09-10T03:18:35.104Z,23.09
2018-09-10T03:19:35.104Z,23.06
2018-09-10T03:20:35.080Z,23.03
2018-09-10T03:21:35.072Z,23.09
2018-09-10T03:22:35.079Z,23.10
2018-09-10T03:23:35.047Z,23.12
2018-09-10T03:24:35.056Z,23.16
2018-09-10T03:25:35.034Z,23.18
2018-09-10T03:26:35.019Z,23.09
2018-09-10T03:27:35.002Z,23.06
2018-09-10T03:28:34.997Z,23.10
2018-09-10T03:29:34.992Z,23.06
2018-09-10T03:30:34.971Z,23.07
2018-09-10T03:31:34.964Z,23.16
2018-09-10T03:32:34.947Z,23.24
2018-09-10T03:33:34.939Z,23.18
2018-09-10T03:34:34.936Z,23.21
2018-09-10T03:35:34.915Z,23.15
2018-09-10T03:36:34.906Z,23.18
2018-09-10T03:37:34.893Z,23.16
2018-09-10T03:38:34.880Z,23.15
2018-09-10T03:39:34.882Z,23.24
2018-09-10T03:40:34.859Z,23.25
2018-09-10T03:41:34.850Z,23.18
2018-09-10T03:42:34.843Z,23.26
2018-09-10T03:43:34.843Z,23.26
2018-09-10T03:44:34.827Z,23.29
2018-09-10T03:45:34.825Z,23.29
2018-09-10T03:46:34.793Z,23.29
2018-09-10T03:47:34.786Z,23.26
2018-09-10T03:48:34.771Z,23.32
2018-09-10T03:49:34.775Z,23.26
2018-09-10T03:50:34.750Z,23.34
2018-09-10T03:51:34.739Z,23.25
2018-09-10T03:52:34.729Z,23.26
2018-09-10T03:53:34.716Z,23.29
2018-09-10T03:54:34.718Z,23.25
2018-09-10T03:55:34.701Z,23.26
2018-09-10T03:56:34.685Z,23.34
2018-09-10T03:57:34.675Z,23.34
2018-09-10T03:58:34.662Z,23.37
2018-09-10T03:59:34.665Z,23.35
2018-09-10T04:00:34.639Z,23.42
2018-09-10T04:01:34.629Z,23.35
2018-09-10T04:02:34.623Z,23.34
2018-09-10T04:03:34.606Z,23.41
2018-09-10T04:04:34.607Z,23.41
2018-09-10T04:05:34.583Z,23.40
2018-09-10T04:06:34.576Z,23.38
2018-09-10T04:07:34.562Z,23.32
2018-09-10T04:08:34.573Z,23.38
2018-09-10T04:09:34.553Z,23.38
2018-09-10T04:10:34.530Z,23.42
2018-09-10T04:11:34.518Z,23.35
2018-09-10T04:12:34.513Z,23.37
2018-09-10T04:13:34.496Z,23.40
2018-09-10T04:14:34.672Z,23.37
2018-09-10T04:15:34.510Z,23.38
2018-09-10T04:16:34.497Z,23.38
2018-09-10T04:17:34.462Z,23.41
2018-09-10T04:18:34.468Z,23.45
2018-09-10T04:19:34.443Z,23.45
2018-09-10T04:20:34.447Z,23.38
2018-09-10T04:21:34.408Z,23.44
2018-09-10T04:22:34.399Z,23.48
2018-09-10T04:23:34.395Z,23.40
2018-09-10T04:24:34.380Z,23.44
2018-09-10T04:25:34.381Z,23.32
2018-09-10T04:26:34.355Z,23.38
2018-09-10T04:27:34.343Z,23.37
2018-09-10T04:28:34.335Z,23.42
2018-09-10T04:29:34.341Z,23.40
2018-09-10T04:30:34.333Z,23.44
2018-09-10T04:31:34.312Z,23.42
2018-09-10T04:32:34.291Z,23.38
2018-09-10T04:33:34.283Z,23.42
2018-09-10T04:34:34.269Z,23.40
2018-09-10T04:35:34.266Z,23.44
2018-09-10T04:36:34.246Z,23.44
2018-09-10T04:37:34.237Z,23.47
2018-09-10T04:38:34.220Z,23.45
2018-09-10T04:39:34.213Z,23.44
2018-09-10T04:40:34.218Z,23.44
2018-09-10T04:41:34.211Z,23.45
2018-09-10T04:42:34.177Z,23.47
2018-09-10T04:43:34.175Z,23.42
2018-09-10T04:44:34.172Z,23.44
2018-09-10T04:45:34.171Z,23.47
2018-09-10T04:46:34.138Z,23.45
2018-09-10T04:47:34.305Z,23.45
2018-09-10T04:48:34.116Z,23.47
2018-09-10T04:49:34.111Z,23.50
2018-09-10T04:50:34.116Z,23.45
2018-09-10T04:51:34.076Z,23.42
2018-09-10T04:52:34.066Z,23.47
2018-09-10T04:53:34.055Z,23.48
2018-09-10T04:54:34.047Z,23.50
2018-09-10T04:55:34.054Z,23.42
2018-09-10T04:56:34.024Z,23.47
2018-09-10T04:57:34.014Z,23.45
2018-09-10T04:58:33.999Z,23.45
2018-09-10T04:59:33.991Z,23.44
2018-09-10T05:00:33.991Z,23.40
2018-09-10T05:01:33.967Z,23.48
2018-09-10T05:02:33.967Z,23.44
2018-09-10T05:03:33.947Z,23.48
2018-09-10T05:04:34.027Z,23.42
2018-09-10T05:05:33.945Z,23.50
2018-09-10T05:06:33.911Z,23.42
2018-09-10T05:07:33.902Z,23.52
2018-09-10T05:08:33.896Z,23.50
2018-09-10T05:09:33.914Z,23.44
2018-09-10T05:10:33.883Z,23.47
2018-09-10T05:11:33.860Z,23.53
2018-09-10T05:12:33.851Z,23.42
2018-09-10T05:13:33.834Z,23.45
2018-09-10T05:14:33.826Z,23.50
2018-09-10T05:15:33.824Z,23.47
2018-09-10T05:16:33.821Z,23.48
2018-09-10T05:17:33.798Z,23.45
2018-09-10T05:18:33.780Z,23.50
2018-09-10T05:19:33.772Z,23.50
2018-09-10T05:20:33.779Z,23.50
2018-09-10T05:21:33.746Z,23.48
2018-09-10T05:22:33.737Z,23.48
2018-09-10T05:23:33.724Z,23.53
2018-09-10T05:24:33.715Z,23.48
2018-09-10T05:25:33.727Z,23.55
2018-09-10T05:26:33.698Z,23.50
2018-09-10T05:27:33.703Z,23.53
2018-09-10T05:28:33.674Z,23.56
2018-09-10T05:29:33.658Z,23.53
2018-09-10T05:30:33.647Z,23.56
2018-09-10T05:31:33.650Z,23.48
2018-09-10T05:32:33.625Z,23.47
2018-09-10T05:33:33.634Z,23.53
2018-09-10T05:34:33.636Z,23.57
2018-09-10T05:35:33.590Z,23.52
2018-09-10T05:36:33.598Z,23.48
2018-09-10T05:37:33.568Z,23.55
2018-09-10T05:38:33.556Z,23.55
2018-09-10T05:39:33.560Z,23.48
2018-09-10T05:40:33.553Z,23.53
2018-09-10T05:41:33.610Z,23.52
2018-09-10T05:42:33.520Z,23.52
2018-09-10T05:43:33.501Z,23.52
2018-09-10T05:44:33.490Z,23.55
2018-09-10T05:45:33.498Z,23.52
2018-09-10T05:46:33.491Z,23.59
2018-09-10T05:47:33.517Z,23.55
2018-09-10T05:48:33.447Z,23.55
2018-09-10T05:49:33.440Z,23.56
2018-09-10T05:50:33.443Z,23.57
2018-09-10T05:51:33.430Z,23.52
2018-09-10T05:52:33.414Z,23.59
2018-09-10T05:53:33.391Z,23.53
2018-09-10T05:54:33.481Z,23.56
2018-09-10T05:55:33.435Z,23.55
2018-09-10T05:56:33.371Z,23.50
2018-09-10T05:57:33.350Z,23.56
2018-09-10T05:58:33.352Z,23.55
2018-09-10T05:59:33.329Z,23.56
2018-09-10T06:00:33.320Z,23.56
2018-09-10T06:01:33.319Z,23.57
2018-09-10T06:02:33.302Z,23.52
2018-09-10T06:03:33.293Z,23.56
2018-09-10T06:04:33.286Z,23.55
2018-09-10T06:05:33.260Z,23.56
2018-09-10T06:06:33.262Z,23.55
2018-09-10T06:07:33.239Z,23.48
2018-09-10T06:08:33.226Z,23.48
2018-09-10T06:09:33.219Z,23.57
2018-09-10T06:10:33.351Z,23.55
2018-09-10T06:11:33.208Z,23.55
2018-09-10T06:12:33.180Z,23.57
2018-09-10T06:13:33.182Z,23.53
2018-09-10T06:14:33.166Z,23.55
2018-09-10T06:15:33.155Z,23.48
2018-09-10T06:16:33.164Z,23.56
2018-09-10T06:17:33.124Z,23.55
2018-09-10T06:18:33.165Z,23.56
2018-09-10T06:19:33.102Z,23.52
2018-09-10T06:20:33.095Z,23.56
2018-09-10T06:21:33.096Z,23.59
2018-09-10T06:22:33.082Z,23.53
2018-09-10T06:23:33.058Z,23.59
2018-09-10T06:24:33.047Z,23.60
2018-09-10T06:25:33.037Z,23.55
2018-09-10T06:26:33.053Z,23.53
2018-09-10T06:27:33.022Z,23.56
2018-09-10T06:28:33.007Z,23.55
2018-09-10T06:29:32.994Z,23.56
2018-09-10T06:30:32.983Z,23.52
2018-09-10T06:31:33.000Z,23.55
2018-09-10T06:32:32.982Z,23.62
2018-09-10T06:33:32.947Z,23.56
2018-09-10T06:34:32.940Z,23.62
2018-09-10T06:35:32.941Z,23.62
2018-09-10T06:36:32.938Z,23.53
2018-09-10T06:37:32.913Z,23.53
2018-09-10T06:38:32.892Z,23.55
2018-09-10T06:39:32.882Z,23.64
2018-09-10T06:40:32.870Z,23.55
2018-09-10T06:41:32.877Z,23.59
2018-09-10T06:42:32.870Z,23.63
2018-09-10T06:43:32.836Z,23.64
2018-09-10T06:44:32.826Z,23.63
2018-09-10T06:45:32.819Z,23.67
2018-09-10T06:46:32.804Z,23.64
2018-09-10T06:47:32.804Z,23.62
2018-09-10T06:48:32.789Z,23.59
2018-09-10T06:49:32.780Z,23.67
2018-09-10T06:50:32.760Z,23.60
2018-09-10T06:51:32.752Z,23.67
2018-09-10T06:52:32.751Z,23.67
2018-09-10T06:53:32.726Z,23.59
2018-09-10T06:54:32.722Z,23.71
2018-09-10T06:55:32.705Z,23.70
2018-09-10T06:56:32.702Z,23.60
2018-09-10T06:57:32.694Z,23.70
2018-09-10T06:58:32.672Z,23.67
2018-09-10T06:59:32.684Z,23.67
2018-09-10T07:00:32.650Z,23.66
2018-09-10T07:01:32.645Z,23.60
2018-09-10T07:02:32.641Z,23.70
2018-09-10T07:03:32.615Z,23.67
2018-09-10T07:04:32.604Z,23.70
2018-09-10T07:05:32.593Z,23.63
2018-09-10T07:06:32.731Z,23.62
2018-09-10T07:07:32.593Z,23.67
2018-09-10T07:08:32.560Z,23.67
2018-09-10T07:09:32.593Z,23.67
2018-09-10T07:10:32.537Z,23.77
2018-09-10T07:11:32.529Z,23.64
2018-09-10T07:12:32.582Z,23.66
2018-09-10T07:13:32.509Z,23.64
2018-09-10T07:14:32.498Z,23.71
2018-09-10T07:15:32.484Z,23.77
2018-09-10T07:16:32.472Z,23.81
2018-09-10T07:17:32.473Z,23.72
2018-09-10T07:18:32.488Z,23.75
2018-09-10T07:19:32.443Z,23.72
2018-09-10T07:20:32.433Z,23.78
2018-09-10T07:21:32.420Z,23.79
2018-09-10T07:22:32.426Z,23.78
2018-09-10T07:23:32.397Z,23.84
2018-09-10T07:24:32.403Z,23.81
2018-09-10T07:25:32.407Z,23.77
2018-09-10T07:26:32.362Z,23.81
2018-09-10T07:27:32.369Z,23.84
2018-09-10T07:28:32.341Z,23.79
2018-09-10T07:29:32.332Z,23.82
2018-09-10T07:30:32.317Z,23.79
2018-09-10T07:31:32.304Z,23.82
2018-09-10T07:32:32.329Z,23.87
2018-09-10T07:33:32.289Z,23.87
2018-09-10T07:34:32.303Z,23.85
2018-09-10T07:35:32.271Z,23.84
2018-09-10T07:36:32.250Z,23.84
2018-09-10T07:37:32.301Z,23.85
2018-09-10T07:38:32.247Z,23.89
2018-09-10T07:39:32.223Z,23.94
2018-09-10T07:40:32.215Z,23.84
2018-09-10T07:41:32.196Z,23.89
2018-09-10T07:42:32.217Z,23.90
2018-09-10T07:43:32.247Z,23.85
2018-09-10T07:44:32.166Z,23.94
2018-09-10T07:45:32.176Z,23.97
2018-09-10T07:46:32.145Z,24.03
2018-09-10T07:47:32.130Z,24.00
2018-09-10T07:48:32.137Z,24.09
2018-09-10T07:49:32.110Z,24.02
2018-09-10T07:50:32.134Z,24.02
2018-09-10T07:51:32.091Z,24.09
2018-09-10T07:52:32.075Z,24.08
2018-09-10T07:53:32.092Z,24.09
2018-09-10T07:54:32.080Z,24.09
2018-09-10T07:55:32.044Z,24.14
2018-09-10T07:56:32.041Z,24.14
2018-09-10T07:57:32.022Z,24.12
2018-09-10T07:58:32.029Z,24.14
2018-09-10T07:59:31.997Z,24.15
2018-09-10T08:00:32.000Z,24.12
2018-09-10T08:01:31.974Z,24.15
2018-09-10T08:02:31.964Z,24.08
2018-09-10T08:03:31.968Z,24.11
2018-09-10T08:04:31.942Z,24.17
2018-09-10T08:05:31.935Z,24.21
2018-09-10T08:06:31.932Z,24.12
2018-09-10T08:07:31.915Z,24.18
2018-09-10T08:08:31.938Z,24.32
2018-09-10T08:09:31.950Z,24.24
2018-09-10T08:10:31.876Z,24.27
2018-09-10T08:11:31.865Z,24.32
2018-09-10T08:12:31.856Z,24.42
2018-09-10T08:13:31.852Z,24.40
2018-09-10T08:14:31.829Z,24.40
2018-09-10T08:15:31.820Z,24.33
2018-09-10T08:16:31.867Z,24.34
2018-09-10T08:17:31.804Z,24.37
2018-09-10T08:18:31.819Z,24.36
2018-09-10T08:19:31.774Z,24.34
2018-09-10T08:20:31.767Z,24.37
2018-09-10T08:21:31.756Z,24.54
2018-09-10T08:22:31.742Z,24.45
2018-09-10T08:23:31.746Z,24.44
2018-09-10T08:24:31.774Z,24.45
2018-09-10T08:25:31.710Z,24.48
2018-09-10T08:26:31.698Z,24.48
2018-09-10T08:27:31.687Z,24.51
2018-09-10T08:28:31.691Z,24.48
2018-09-10T08:29:31.669Z,24.49
2018-09-10T08:30:31.751Z,24.46
2018-09-10T08:31:31.664Z,24.58
2018-09-10T08:32:31.634Z,24.46
2018-09-10T08:33:31.633Z,24.52
2018-09-10T08:34:31.622Z,24.49
2018-09-10T08:35:31.601Z,24.58
2018-09-10T08:36:31.590Z,24.55
2018-09-10T08:37:31.599Z,24.58
2018-09-10T08:38:31.598Z,24.56
2018-09-10T08:39:31.556Z,24.55
2018-09-10T08:40:31.552Z,24.61
2018-09-10T08:41:31.535Z,24.54
2018-09-10T08:42:31.530Z,24.52
2018-09-10T08:43:31.527Z,24.58
2018-09-10T08:44:31.503Z,24.51
2018-09-10T08:45:31.494Z,24.55
2018-09-10T08:46:31.481Z,24.49
2018-09-10T08:47:31.470Z,24.52
2018-09-10T08:48:31.470Z,24.63
2018-09-10T08:49:31.450Z,24.58
2018-09-10T08:50:31.440Z,24.52
2018-09-10T08:51:31.430Z,24.61
2018-09-10T08:52:31.416Z,24.58
2018-09-10T08:53:31.437Z,24.54
2018-09-10T08:54:31.708Z,24.51
2018-09-10T08:55:31.481Z,24.61
2018-09-10T08:56:31.374Z,24.55
2018-09-10T08:57:31.371Z,24.49
2018-09-10T08:58:31.362Z,24.54
2018-09-10T08:59:31.342Z,24.58
2018-09-10T09:00:31.493Z,24.58
2018-09-10T09:01:31.323Z,24.54
2018-09-10T09:02:31.305Z,24.52
2018-09-10T09:03:31.323Z,24.58
2018-09-10T09:04:31.289Z,24.56
2018-09-10T09:05:31.291Z,24.58
2018-09-10T09:06:31.315Z,24.54
2018-09-10T09:07:31.259Z,24.61
2018-09-10T09:08:31.246Z,24.54
2018-09-10T09:09:31.240Z,24.58
2018-09-10T09:10:31.218Z,24.67
2018-09-10T09:11:31.237Z,24.66
2018-09-10T09:12:31.198Z,24.61
2018-09-10T09:13:31.185Z,24.61
2018-09-10T09:14:31.236Z,24.56
2018-09-10T09:15:31.163Z,24.58
2018-09-10T09:16:31.153Z,24.58
2018-09-10T09:17:31.215Z,24.54
2018-09-10T09:18:31.133Z,24.55
2018-09-10T09:19:31.135Z,24.49
2018-09-10T09:20:31.113Z,24.56
2018-09-10T09:21:31.098Z,24.52
2018-09-10T09:22:31.088Z,24.61
2018-09-10T09:23:31.096Z,24.59
2018-09-10T09:24:31.090Z,24.58
2018-09-10T09:25:31.056Z,24.56
2018-09-10T09:26:31.049Z,24.59
2018-09-10T09:27:31.032Z,24.56
2018-09-10T09:28:31.025Z,24.58
2018-09-10T09:29:31.084Z,24.56
2018-09-10T09:30:31.006Z,24.61
2018-09-10T09:31:30.993Z,24.52
2018-09-10T09:32:30.980Z,24.59
2018-09-10T09:33:30.973Z,24.56
2018-09-10T09:34:30.968Z,24.54
2018-09-10T09:35:30.950Z,24.61
2018-09-10T09:36:30.935Z,24.56
2018-09-10T09:37:30.934Z,24.51
2018-09-10T09:38:30.915Z,24.61
2018-09-10T09:39:30.913Z,24.55
2018-09-10T09:40:30.908Z,24.55
2018-09-10T09:41:30.880Z,24.64
2018-09-10T09:42:30.869Z,24.58
2018-09-10T09:43:30.901Z,24.61
2018-09-10T09:44:30.863Z,24.58
2018-09-10T09:45:30.835Z,24.58
2018-09-10T09:46:30.825Z,24.56
2018-09-10T09:47:30.814Z,24.61
2018-09-10T09:48:30.803Z,24.59
2018-09-10T09:49:30.809Z,24.56
2018-09-10T09:50:30.806Z,24.61
2018-09-10T09:51:30.780Z,24.61
2018-09-10T09:52:30.761Z,24.58
2018-09-10T09:53:30.749Z,24.64
2018-09-10T09:54:30.750Z,24.67
2018-09-10T09:55:30.731Z,24.59
2018-09-10T09:56:30.754Z,24.64
2018-09-10T09:57:30.714Z,24.61
2018-09-10T09:58:30.694Z,24.66
2018-09-10T09:59:30.704Z,24.64
2018-09-10T10:00:30.673Z,24.69
2018-09-10T10:01:30.666Z,24.61
2018-09-10T10:02:30.651Z,24.69
2018-09-10T10:03:30.653Z,24.61
2018-09-10T10:04:30.699Z,24.69
2018-09-10T10:05:30.629Z,24.61
2018-09-10T10:06:30.606Z,24.56
2018-09-10T10:07:30.597Z,24.64
2018-09-10T10:08:30.585Z,24.67
2018-09-10T10:09:30.578Z,24.67
2018-09-10T10:10:30.577Z,24.69
2018-09-10T10:11:30.614Z,24.61
2018-09-10T10:12:30.609Z,24.61
2018-09-10T10:13:30.543Z,24.66
2018-09-10T10:14:30.524Z,24.61
2018-09-10T10:15:30.524Z,24.61
2018-09-10T10:16:30.558Z,24.78
2018-09-10T10:17:30.499Z,24.67
2018-09-10T10:18:30.480Z,24.74
2018-09-10T10:19:30.469Z,24.63
2018-09-10T10:20:30.473Z,24.75
2018-09-10T10:21:30.446Z,24.75
2018-09-10T10:22:30.437Z,24.67
2018-09-10T10:23:30.463Z,24.77
2018-09-10T10:24:30.414Z,24.66
2018-09-10T10:25:30.421Z,24.75
2018-09-10T10:26:30.393Z,24.71
2018-09-10T10:27:30.384Z,24.63
2018-09-10T10:28:30.372Z,24.69
2018-09-10T10:29:30.364Z,24.70
2018-09-10T10:30:30.363Z,24.78
2018-09-10T10:31:30.350Z,24.77
2018-09-10T10:32:30.329Z,24.74
2018-09-10T10:33:30.324Z,24.82
2018-09-10T10:34:30.308Z,24.82
2018-09-10T10:35:30.318Z,24.69
2018-09-10T10:36:30.300Z,24.75
2018-09-10T10:37:30.277Z,24.74
2018-09-10T10:38:30.266Z,24.64
2018-09-10T10:39:30.257Z,24.77
2018-09-10T10:40:30.254Z,24.71
2018-09-10T10:41:30.232Z,24.77
2018-09-10T10:42:30.242Z,24.75
2018-09-10T10:43:30.287Z,24.75
2018-09-10T10:44:30.200Z,24.80
2018-09-10T10:45:30.202Z,24.75
2018-09-10T10:46:30.202Z,24.77
2018-09-10T10:47:30.260Z,24.74
2018-09-10T10:48:30.168Z,24.71
2018-09-10T10:49:30.157Z,24.80
2018-09-10T10:50:30.147Z,24.74
2018-09-10T10:51:30.127Z,24.71
2018-09-10T10:52:30.123Z,24.82
2018-09-10T10:53:30.112Z,24.80
2018-09-10T10:54:30.104Z,24.74
2018-09-10T10:55:30.109Z,24.71
2018-09-10T10:56:30.083Z,24.74
2018-09-10T10:57:30.062Z,24.80
2018-09-10T10:58:30.067Z,24.82
2018-09-10T10:59:30.054Z,24.74
2018-09-10T11:00:30.034Z,24.78
2018-09-10T11:01:30.048Z,24.78
2018-09-10T11:02:30.009Z,24.75
2018-09-10T11:03:30.000Z,24.75
2018-09-10T11:04:29.990Z,24.75
2018-09-10T11:05:29.977Z,24.82
2018-09-10T11:06:29.982Z,24.74
2018-09-10T11:07:29.955Z,24.77
2018-09-10T11:08:29.953Z,24.75
2018-09-10T11:09:29.954Z,24.70
2018-09-10T11:10:29.926Z,24.70
2018-09-10T11:11:29.932Z,24.67
2018-09-10T11:12:29.921Z,24.77
2018-09-10T11:13:29.893Z,24.74
2018-09-10T11:14:29.887Z,24.78
2018-09-10T11:15:29.901Z,24.61
2018-09-10T11:16:29.910Z,24.74
2018-09-10T11:17:29.861Z,24.74
2018-09-10T11:18:29.869Z,24.74
2018-09-10T11:19:29.827Z,24.66
2018-09-10T11:20:29.826Z,24.71
2018-09-10T11:21:29.824Z,24.77
2018-09-10T11:22:29.797Z,24.75
2018-09-10T11:23:29.793Z,24.59
2018-09-10T11:24:29.773Z,24.67
2018-09-10T11:25:29.762Z,24.70
2018-09-10T11:26:29.765Z,24.71
2018-09-10T11:27:29.759Z,24.70
2018-09-10T11:28:29.735Z,24.63
2018-09-10T11:29:29.723Z,24.61
2018-09-10T11:30:29.718Z,24.70
2018-09-10T11:31:29.717Z,24.75
2018-09-10T11:32:29.698Z,24.61
2018-09-10T11:33:29.683Z,24.63
2018-09-10T11:34:29.731Z,24.66
2018-09-10T11:35:29.662Z,24.77
2018-09-10T11:36:29.668Z,24.74
2018-09-10T11:37:29.635Z,24.63
2018-09-10T11:38:29.623Z,24.75
2018-09-10T11:39:29.621Z,24.74
2018-09-10T11:40:29.656Z,24.63
2018-09-10T11:41:29.601Z,24.66
2018-09-10T11:42:29.593Z,24.61
2018-09-10T11:43:29.593Z,24.74
2018-09-10T11:44:29.558Z,24.74
2018-09-10T11:45:29.553Z,24.78
2018-09-10T11:46:29.593Z,24.63
2018-09-10T11:47:29.525Z,24.82
2018-09-10T11:48:29.515Z,24.64
2018-09-10T11:49:29.506Z,24.77
2018-09-10T11:50:29.494Z,24.80
2018-09-10T11:51:29.495Z,24.69
2018-09-10T11:52:29.480Z,24.77
2018-09-10T11:53:29.461Z,24.61
2018-09-10T11:54:29.465Z,24.74
2018-09-10T11:55:29.528Z,24.78
2018-09-10T11:56:29.445Z,24.78
2018-09-10T11:57:29.419Z,24.63
2018-09-10T11:58:29.406Z,24.64
2018-09-10T11:59:29.404Z,24.66
2018-09-10T12:00:29.396Z,24.59
2018-09-10T12:01:29.392Z,24.71
2018-09-10T12:02:29.374Z,24.69
2018-09-10T12:03:29.353Z,24.75
2018-09-10T12:04:29.342Z,24.66
2018-09-10T12:05:29.328Z,24.67
2018-09-10T12:06:29.343Z,24.70
2018-09-10T12:07:29.317Z,24.63
2018-09-10T12:08:29.410Z,24.75
2018-09-10T12:09:29.289Z,24.75
2018-09-10T12:10:29.278Z,24.67
2018-09-10T12:11:29.289Z,24.77
2018-09-10T12:12:29.263Z,24.74
2018-09-10T12:13:29.293Z,24.69
2018-09-10T12:14:29.233Z,24.61
2018-09-10T12:15:29.223Z,24.64
2018-09-10T12:16:29.239Z,24.55
2018-09-10T12:17:29.199Z,24.58
2018-09-10T12:18:29.213Z,24.66
2018-09-10T12:19:29.181Z,24.69
2018-09-10T12:20:29.164Z,24.59
2018-09-10T12:21:29.194Z,24.64
2018-09-10T12:22:29.154Z,24.69
2018-09-10T12:23:29.132Z,24.63
2018-09-10T12:24:29.134Z,24.66
2018-09-10T12:25:29.117Z,24.74
2018-09-10T12:26:29.123Z,24.66
2018-09-10T12:27:29.103Z,24.64
2018-09-10T12:28:29.078Z,24.66
2018-09-10T12:29:29.070Z,24.78
2018-09-10T12:30:29.058Z,24.61
2018-09-10T12:31:29.047Z,24.64
2018-09-10T12:32:29.196Z,24.67
2018-09-10T12:33:29.033Z,24.63
2018-09-10T12:34:29.018Z,24.61
2018-09-10T12:35:29.005Z,24.64
2018-09-10T12:36:28.991Z,24.61
2018-09-10T12:37:29.008Z,24.59
2018-09-10T12:38:28.976Z,24.70
2018-09-10T12:39:28.986Z,24.63
2018-09-10T12:40:28.947Z,24.66
2018-09-10T12:41:28.963Z,24.64
2018-09-10T12:42:28.937Z,24.74
2018-09-10T12:43:28.915Z,24.78
2018-09-10T12:44:28.904Z,24.59
2018-09-10T12:45:28.893Z,24.59
2018-09-10T12:46:28.958Z,24.58
2018-09-10T12:47:28.911Z,24.74
2018-09-10T12:48:28.871Z,24.71
2018-09-10T12:49:28.850Z,24.61
2018-09-10T12:50:28.843Z,24.69
2018-09-10T12:51:28.826Z,24.74
2018-09-10T12:52:28.829Z,24.74